sensor_id;sensor_type;location;lat;lon;timestamp;temperature;humidity
13464;DHT22;6804;48.774;9.174;2023-07-13T00:01:23;23.30;91.60
13464;DHT22;6804;48.774;9.174;2023-07-13T00:03:52;23.20;91.60
13464;DHT22;6804;48.774;9.174;2023-07-13T00:06:21;23.20;91.70
13464;DHT22;6804;48.774;9.174;2023-07-13T00:08:49;23.20;91.60
13464;DHT22;6804;48.774;9.174;2023-07-13T00:11:17;23.30;91.60
13464;DHT22;6804;48.774;9.174;2023-07-13T00:13:44;23.20;91.20
13464;DHT22;6804;48.774;9.174;2023-07-13T00:16:16;23.20;91.20
13464;DHT22;6804;48.774;9.174;2023-07-13T00:18:45;23.10;91.10
13464;DHT22;6804;48.774;9.174;2023-07-13T00:21:15;23.00;91.00
13464;DHT22;6804;48.774;9.174;2023-07-13T00:23:46;22.90;91.10
13464;DHT22;6804;48.774;9.174;2023-07-13T00:26:13;22.80;91.30
13464;DHT22;6804;48.774;9.174;2023-07-13T00:28:41;22.80;91.20
13464;DHT22;6804;48.774;9.174;2023-07-13T00:31:12;22.80;91.10
13464;DHT22;6804;48.774;9.174;2023-07-13T00:33:45;22.70;91.00
13464;DHT22;6804;48.774;9.174;2023-07-13T00:36:16;22.70;91.30
13464;DHT22;6804;48.774;9.174;2023-07-13T00:38:44;22.70;91.20
13464;DHT22;6804;48.774;9.174;2023-07-13T00:41:14;22.60;91.00
13464;DHT22;6804;48.774;9.174;2023-07-13T00:43:45;22.60;91.20
13464;DHT22;6804;48.774;9.174;2023-07-13T00:46:24;22.60;91.20
13464;DHT22;6804;48.774;9.174;2023-07-13T00:48:56;22.60;91.20
13464;DHT22;6804;48.774;9.174;2023-07-13T00:51:32;22.70;91.40
13464;DHT22;6804;48.774;9.174;2023-07-13T00:54:07;22.70;91.20
13464;DHT22;6804;48.774;9.174;2023-07-13T00:56:41;22.80;91.10
13464;DHT22;6804;48.774;9.174;2023-07-13T00:59:29;22.80;91.10
13464;DHT22;6804;48.774;9.174;2023-07-13T01:02:04;22.80;91.00
13464;DHT22;6804;48.774;9.174;2023-07-13T01:04:52;22.90;90.80
13464;DHT22;6804;48.774;9.174;2023-07-13T01:07:21;22.90;90.70
13464;DHT22;6804;48.774;9.174;2023-07-13T01:09:48;22.90;90.60
13464;DHT22;6804;48.774;9.174;2023-07-13T01:12:16;23.00;90.70
13464;DHT22;6804;48.774;9.174;2023-07-13T01:14:45;23.00;90.50
13464;DHT22;6804;48.774;9.174;2023-07-13T01:17:15;23.00;90.70
13464;DHT22;6804;48.774;9.174;2023-07-13T01:19:46;23.10;90.70
13464;DHT22;6804;48.774;9.174;2023-07-13T01:22:18;23.00;90.90
13464;DHT22;6804;48.774;9.174;2023-07-13T01:24:53;23.00;91.10
13464;DHT22;6804;48.774;9.174;2023-07-13T01:27:25;23.00;91.30
13464;DHT22;6804;48.774;9.174;2023-07-13T01:29:54;22.90;91.30
13464;DHT22;6804;48.774;9.174;2023-07-13T01:32:29;22.90;91.40
13464;DHT22;6804;48.774;9.174;2023-07-13T01:34:58;22.90;91.60
13464;DHT22;6804;48.774;9.174;2023-07-13T01:37:27;22.90;91.60
13464;DHT22;6804;48.774;9.174;2023-07-13T01:40:03;22.80;91.70
13464;DHT22;6804;48.774;9.174;2023-07-13T01:42:34;22.80;91.70
13464;DHT22;6804;48.774;9.174;2023-07-13T01:45:05;22.80;91.90
13464;DHT22;6804;48.774;9.174;2023-07-13T01:47:33;22.70;92.00
13464;DHT22;6804;48.774;9.174;2023-07-13T01:50:01;22.70;92.30
13464;DHT22;6804;48.774;9.174;2023-07-13T01:52:32;22.60;92.70
13464;DHT22;6804;48.774;9.174;2023-07-13T01:55:00;22.60;92.60
13464;DHT22;6804;48.774;9.174;2023-07-13T01:57:29;22.50;92.30
13464;DHT22;6804;48.774;9.174;2023-07-13T01:59:56;22.50;92.40
13464;DHT22;6804;48.774;9.174;2023-07-13T02:02:48;22.50;92.30
13464;DHT22;6804;48.774;9.174;2023-07-13T02:05:15;22.50;92.30
13464;DHT22;6804;48.774;9.174;2023-07-13T02:07:47;22.40;92.50
13464;DHT22;6804;48.774;9.174;2023-07-13T02:10:16;22.40;93.00
13464;DHT22;6804;48.774;9.174;2023-07-13T02:12:44;22.40;93.30
13464;DHT22;6804;48.774;9.174;2023-07-13T02:15:13;22.40;93.20
13464;DHT22;6804;48.774;9.174;2023-07-13T02:17:40;22.40;93.30
13464;DHT22;6804;48.774;9.174;2023-07-13T02:20:08;22.30;93.30
13464;DHT22;6804;48.774;9.174;2023-07-13T02:22:38;22.30;93.30
13464;DHT22;6804;48.774;9.174;2023-07-13T02:25:07;22.30;93.20
13464;DHT22;6804;48.774;9.174;2023-07-13T02:27:36;22.30;93.30
13464;DHT22;6804;48.774;9.174;2023-07-13T02:30:07;22.30;93.40
13464;DHT22;6804;48.774;9.174;2023-07-13T02:32:36;22.20;93.30
13464;DHT22;6804;48.774;9.174;2023-07-13T02:35:05;22.20;93.60
13464;DHT22;6804;48.774;9.174;2023-07-13T02:37:32;22.20;93.60
13464;DHT22;6804;48.774;9.174;2023-07-13T02:40:08;22.20;93.60
13464;DHT22;6804;48.774;9.174;2023-07-13T02:42:36;22.10;93.70
13464;DHT22;6804;48.774;9.174;2023-07-13T02:45:06;22.00;93.80
13464;DHT22;6804;48.774;9.174;2023-07-13T02:47:34;21.90;94.10
13464;DHT22;6804;48.774;9.174;2023-07-13T02:50:04;21.80;94.10
13464;DHT22;6804;48.774;9.174;2023-07-13T02:52:34;21.80;94.20
13464;DHT22;6804;48.774;9.174;2023-07-13T02:55:01;21.80;94.10
13464;DHT22;6804;48.774;9.174;2023-07-13T02:57:30;21.80;94.10
13464;DHT22;6804;48.774;9.174;2023-07-13T02:59:58;21.70;94.00
13464;DHT22;6804;48.774;9.174;2023-07-13T03:02:27;21.70;94.00
13464;DHT22;6804;48.774;9.174;2023-07-13T03:04:55;21.60;94.10
13464;DHT22;6804;48.774;9.174;2023-07-13T03:07:25;21.60;94.30
13464;DHT22;6804;48.774;9.174;2023-07-13T03:09:54;21.60;94.60
13464;DHT22;6804;48.774;9.174;2023-07-13T03:12:22;21.60;94.80
13464;DHT22;6804;48.774;9.174;2023-07-13T03:14:51;21.50;94.80
13464;DHT22;6804;48.774;9.174;2023-07-13T03:17:18;21.50;94.90
13464;DHT22;6804;48.774;9.174;2023-07-13T03:19:48;21.50;94.80
13464;DHT22;6804;48.774;9.174;2023-07-13T03:22:17;21.40;95.10
13464;DHT22;6804;48.774;9.174;2023-07-13T03:24:49;21.30;95.50
13464;DHT22;6804;48.774;9.174;2023-07-13T03:27:19;21.30;94.90
13464;DHT22;6804;48.774;9.174;2023-07-13T03:29:47;21.20;95.00
13464;DHT22;6804;48.774;9.174;2023-07-13T03:32:18;21.30;95.10
13464;DHT22;6804;48.774;9.174;2023-07-13T03:34:46;21.40;95.10
13464;DHT22;6804;48.774;9.174;2023-07-13T03:37:13;21.40;95.10
13464;DHT22;6804;48.774;9.174;2023-07-13T03:39:41;21.40;95.10
13464;DHT22;6804;48.774;9.174;2023-07-13T03:42:08;21.40;95.00
13464;DHT22;6804;48.774;9.174;2023-07-13T03:44:35;21.40;95.00
13464;DHT22;6804;48.774;9.174;2023-07-13T03:47:03;21.40;94.90
13464;DHT22;6804;48.774;9.174;2023-07-13T03:49:33;21.30;95.20
13464;DHT22;6804;48.774;9.174;2023-07-13T03:52:00;21.30;95.00
13464;DHT22;6804;48.774;9.174;2023-07-13T03:54:27;21.30;95.10
13464;DHT22;6804;48.774;9.174;2023-07-13T03:56:55;21.20;95.10
13464;DHT22;6804;48.774;9.174;2023-07-13T03:59:23;21.10;95.40
13464;DHT22;6804;48.774;9.174;2023-07-13T04:01:51;21.10;95.50
13464;DHT22;6804;48.774;9.174;2023-07-13T04:04:18;21.10;95.60
13464;DHT22;6804;48.774;9.174;2023-07-13T04:06:50;21.10;95.40
13464;DHT22;6804;48.774;9.174;2023-07-13T04:09:19;21.20;95.50
13464;DHT22;6804;48.774;9.174;2023-07-13T04:11:47;21.20;95.10
13464;DHT22;6804;48.774;9.174;2023-07-13T04:14:14;21.30;95.30
13464;DHT22;6804;48.774;9.174;2023-07-13T04:16:41;21.30;95.30
13464;DHT22;6804;48.774;9.174;2023-07-13T04:19:09;21.40;95.10
13464;DHT22;6804;48.774;9.174;2023-07-13T04:21:37;21.50;94.80
13464;DHT22;6804;48.774;9.174;2023-07-13T04:24:06;21.50;94.60
13464;DHT22;6804;48.774;9.174;2023-07-13T04:26:34;21.60;94.60
13464;DHT22;6804;48.774;9.174;2023-07-13T04:29:04;21.60;94.40
13464;DHT22;6804;48.774;9.174;2023-07-13T04:31:31;21.70;94.10
13464;DHT22;6804;48.774;9.174;2023-07-13T04:34:02;21.70;94.00
13464;DHT22;6804;48.774;9.174;2023-07-13T04:36:29;21.80;93.90
13464;DHT22;6804;48.774;9.174;2023-07-13T04:38:58;21.80;93.90
13464;DHT22;6804;48.774;9.174;2023-07-13T04:41:32;21.80;93.80
13464;DHT22;6804;48.774;9.174;2023-07-13T04:44:00;21.90;93.70
13464;DHT22;6804;48.774;9.174;2023-07-13T04:46:28;21.80;93.40
13464;DHT22;6804;48.774;9.174;2023-07-13T04:49:03;21.70;93.60
13464;DHT22;6804;48.774;9.174;2023-07-13T04:51:33;21.60;93.40
13464;DHT22;6804;48.774;9.174;2023-07-13T04:54:00;21.60;93.60
13464;DHT22;6804;48.774;9.174;2023-07-13T04:56:32;21.60;93.60
13464;DHT22;6804;48.774;9.174;2023-07-13T04:59:00;21.70;93.70
13464;DHT22;6804;48.774;9.174;2023-07-13T05:01:28;21.70;93.60
13464;DHT22;6804;48.774;9.174;2023-07-13T05:04:01;21.80;93.50
13464;DHT22;6804;48.774;9.174;2023-07-13T05:06:28;21.80;93.30
13464;DHT22;6804;48.774;9.174;2023-07-13T05:09:04;21.70;93.70
13464;DHT22;6804;48.774;9.174;2023-07-13T05:11:34;21.70;92.80
13464;DHT22;6804;48.774;9.174;2023-07-13T05:14:03;21.80;92.80
13464;DHT22;6804;48.774;9.174;2023-07-13T05:16:30;21.80;93.00
13464;DHT22;6804;48.774;9.174;2023-07-13T05:18:58;21.80;93.40
13464;DHT22;6804;48.774;9.174;2023-07-13T05:21:31;21.80;94.00
13464;DHT22;6804;48.774;9.174;2023-07-13T05:24:02;21.80;93.40
13464;DHT22;6804;48.774;9.174;2023-07-13T05:26:31;21.90;92.50
13464;DHT22;6804;48.774;9.174;2023-07-13T05:29:03;22.00;92.40
13464;DHT22;6804;48.774;9.174;2023-07-13T05:31:32;22.00;91.80
13464;DHT22;6804;48.774;9.174;2023-07-13T05:34:20;21.90;91.70
13464;DHT22;6804;48.774;9.174;2023-07-13T05:36:52;22.00;91.40
13464;DHT22;6804;48.774;9.174;2023-07-13T05:39:21;22.00;91.40
13464;DHT22;6804;48.774;9.174;2023-07-13T05:41:52;22.10;91.50
13464;DHT22;6804;48.774;9.174;2023-07-13T05:44:40;22.10;91.10
13464;DHT22;6804;48.774;9.174;2023-07-13T05:47:08;22.30;91.30
13464;DHT22;6804;48.774;9.174;2023-07-13T05:49:36;22.20;91.10
13464;DHT22;6804;48.774;9.174;2023-07-13T05:52:25;22.30;90.90
13464;DHT22;6804;48.774;9.174;2023-07-13T05:54:52;22.30;90.80
13464;DHT22;6804;48.774;9.174;2023-07-13T05:57:22;22.40;90.40
13464;DHT22;6804;48.774;9.174;2023-07-13T05:59:51;22.40;90.20
13464;DHT22;6804;48.774;9.174;2023-07-13T06:02:19;22.40;90.30
13464;DHT22;6804;48.774;9.174;2023-07-13T06:04:46;22.30;90.00
13464;DHT22;6804;48.774;9.174;2023-07-13T06:07:14;22.30;90.00
13464;DHT22;6804;48.774;9.174;2023-07-13T06:09:42;22.40;90.00
13464;DHT22;6804;48.774;9.174;2023-07-13T06:12:10;22.40;89.20
13464;DHT22;6804;48.774;9.174;2023-07-13T06:14:41;22.40;90.00
13464;DHT22;6804;48.774;9.174;2023-07-13T06:17:32;22.70;90.80
13464;DHT22;6804;48.774;9.174;2023-07-13T06:20:03;23.00;91.20
13464;DHT22;6804;48.774;9.174;2023-07-13T06:22:31;23.30;90.80
13464;DHT22;6804;48.774;9.174;2023-07-13T06:24:58;23.50;90.40
13464;DHT22;6804;48.774;9.174;2023-07-13T06:27:26;23.60;89.70
13464;DHT22;6804;48.774;9.174;2023-07-13T06:29:56;23.80;89.60
13464;DHT22;6804;48.774;9.174;2023-07-13T06:32:24;24.00;88.50
13464;DHT22;6804;48.774;9.174;2023-07-13T06:34:55;24.20;88.20
13464;DHT22;6804;48.774;9.174;2023-07-13T06:37:23;24.30;87.90
13464;DHT22;6804;48.774;9.174;2023-07-13T06:39:57;24.60;86.80
13464;DHT22;6804;48.774;9.174;2023-07-13T06:42:24;24.90;86.20
13464;DHT22;6804;48.774;9.174;2023-07-13T06:44:53;25.10;84.70
13464;DHT22;6804;48.774;9.174;2023-07-13T06:47:21;25.40;83.80
13464;DHT22;6804;48.774;9.174;2023-07-13T06:49:53;25.60;82.60
13464;DHT22;6804;48.774;9.174;2023-07-13T06:52:22;25.00;82.40
13464;DHT22;6804;48.774;9.174;2023-07-13T06:54:51;24.40;84.50
13464;DHT22;6804;48.774;9.174;2023-07-13T06:57:18;24.50;85.00
13464;DHT22;6804;48.774;9.174;2023-07-13T06:59:46;24.50;83.90
13464;DHT22;6804;48.774;9.174;2023-07-13T07:02:14;24.70;82.40
13464;DHT22;6804;48.774;9.174;2023-07-13T07:04:42;24.90;82.60
13464;DHT22;6804;48.774;9.174;2023-07-13T07:07:11;25.10;79.90
13464;DHT22;6804;48.774;9.174;2023-07-13T07:09:42;25.30;79.60
13464;DHT22;6804;48.774;9.174;2023-07-13T07:12:15;25.50;79.20
13464;DHT22;6804;48.774;9.174;2023-07-13T07:14:43;25.70;79.00
13464;DHT22;6804;48.774;9.174;2023-07-13T07:17:14;25.90;78.80
13464;DHT22;6804;48.774;9.174;2023-07-13T07:19:42;26.10;77.70
13464;DHT22;6804;48.774;9.174;2023-07-13T07:22:11;26.40;75.40
13464;DHT22;6804;48.774;9.174;2023-07-13T07:24:42;26.50;76.00
13464;DHT22;6804;48.774;9.174;2023-07-13T07:27:10;26.60;74.10
13464;DHT22;6804;48.774;9.174;2023-07-13T07:29:39;26.40;75.40
13464;DHT22;6804;48.774;9.174;2023-07-13T07:32:08;26.40;75.60
13464;DHT22;6804;48.774;9.174;2023-07-13T07:34:38;26.40;76.20
13464;DHT22;6804;48.774;9.174;2023-07-13T07:37:06;26.60;75.50
13464;DHT22;6804;48.774;9.174;2023-07-13T07:39:35;26.60;74.00
13464;DHT22;6804;48.774;9.174;2023-07-13T07:42:05;26.70;75.40
13464;DHT22;6804;48.774;9.174;2023-07-13T07:44:36;27.00;75.40
13464;DHT22;6804;48.774;9.174;2023-07-13T07:47:06;27.10;71.90
13464;DHT22;6804;48.774;9.174;2023-07-13T07:49:35;27.30;73.50
13464;DHT22;6804;48.774;9.174;2023-07-13T07:52:08;27.50;73.00
13464;DHT22;6804;48.774;9.174;2023-07-13T07:54:40;27.70;72.20
13464;DHT22;6804;48.774;9.174;2023-07-13T07:57:08;27.80;71.50
13464;DHT22;6804;48.774;9.174;2023-07-13T07:59:37;28.00;70.90
13464;DHT22;6804;48.774;9.174;2023-07-13T08:02:06;28.00;69.40
13464;DHT22;6804;48.774;9.174;2023-07-13T08:04:36;28.00;68.90
13464;DHT22;6804;48.774;9.174;2023-07-13T08:07:06;28.00;69.60
13464;DHT22;6804;48.774;9.174;2023-07-13T08:09:37;27.90;68.70
13464;DHT22;6804;48.774;9.174;2023-07-13T08:12:08;27.90;69.00
13464;DHT22;6804;48.774;9.174;2023-07-13T08:14:36;27.80;67.60
13464;DHT22;6804;48.774;9.174;2023-07-13T08:17:06;27.10;68.90
13464;DHT22;6804;48.774;9.174;2023-07-13T08:19:37;26.90;69.30
13464;DHT22;6804;48.774;9.174;2023-07-13T08:22:07;26.70;69.10
13464;DHT22;6804;48.774;9.174;2023-07-13T08:24:36;26.70;70.40
13464;DHT22;6804;48.774;9.174;2023-07-13T08:27:08;26.90;70.40
13464;DHT22;6804;48.774;9.174;2023-07-13T08:29:37;27.10;69.50
13464;DHT22;6804;48.774;9.174;2023-07-13T08:32:06;27.20;70.40
13464;DHT22;6804;48.774;9.174;2023-07-13T08:34:37;27.10;68.80
13464;DHT22;6804;48.774;9.174;2023-07-13T08:37:07;27.10;69.90
13464;DHT22;6804;48.774;9.174;2023-07-13T08:39:35;27.10;69.30
13464;DHT22;6804;48.774;9.174;2023-07-13T08:42:12;27.00;70.70
13464;DHT22;6804;48.774;9.174;2023-07-13T08:44:55;27.20;70.50
13464;DHT22;6804;48.774;9.174;2023-07-13T08:47:24;26.80;70.40
13464;DHT22;6804;48.774;9.174;2023-07-13T08:49:54;26.50;72.40
13464;DHT22;6804;48.774;9.174;2023-07-13T08:52:39;26.70;72.20
13464;DHT22;6804;48.774;9.174;2023-07-13T08:55:13;26.90;72.30
13464;DHT22;6804;48.774;9.174;2023-07-13T08:57:53;27.00;71.50
13464;DHT22;6804;48.774;9.174;2023-07-13T09:00:34;27.00;71.60
13464;DHT22;6804;48.774;9.174;2023-07-13T09:03:20;27.00;72.20
13464;DHT22;6804;48.774;9.174;2023-07-13T09:05:54;27.00;71.40
13464;DHT22;6804;48.774;9.174;2023-07-13T09:08:48;27.00;71.90
13464;DHT22;6804;48.774;9.174;2023-07-13T09:11:42;27.10;72.30
13464;DHT22;6804;48.774;9.174;2023-07-13T09:14:42;27.20;72.30
13464;DHT22;6804;48.774;9.174;2023-07-13T09:17:20;27.20;71.00
13464;DHT22;6804;48.774;9.174;2023-07-13T09:20:02;27.00;71.10
13464;DHT22;6804;48.774;9.174;2023-07-13T09:22:33;26.90;71.30
13464;DHT22;6804;48.774;9.174;2023-07-13T09:25:05;26.70;71.30
13464;DHT22;6804;48.774;9.174;2023-07-13T09:27:39;26.80;72.00
13464;DHT22;6804;48.774;9.174;2023-07-13T09:30:27;27.00;72.60
13464;DHT22;6804;48.774;9.174;2023-07-13T09:33:00;27.30;72.30
13464;DHT22;6804;48.774;9.174;2023-07-13T09:35:31;27.60;71.10
13464;DHT22;6804;48.774;9.174;2023-07-13T09:38:03;27.70;70.20
13464;DHT22;6804;48.774;9.174;2023-07-13T09:40:49;27.80;69.80
13464;DHT22;6804;48.774;9.174;2023-07-13T09:43:21;27.70;69.50
13464;DHT22;6804;48.774;9.174;2023-07-13T09:45:51;27.70;69.30
13464;DHT22;6804;48.774;9.174;2023-07-13T09:48:22;27.20;68.70
13464;DHT22;6804;48.774;9.174;2023-07-13T09:51:04;26.90;68.90
13464;DHT22;6804;48.774;9.174;2023-07-13T09:53:43;26.80;70.10
13464;DHT22;6804;48.774;9.174;2023-07-13T09:56:30;26.90;70.30
13464;DHT22;6804;48.774;9.174;2023-07-13T09:58:58;27.00;68.40
13464;DHT22;6804;48.774;9.174;2023-07-13T10:01:35;26.40;69.40
13464;DHT22;6804;48.774;9.174;2023-07-13T10:04:11;26.30;71.70
13464;DHT22;6804;48.774;9.174;2023-07-13T10:06:41;26.50;71.40
13464;DHT22;6804;48.774;9.174;2023-07-13T10:09:10;26.80;70.90
13464;DHT22;6804;48.774;9.174;2023-07-13T10:11:43;27.10;70.30
13464;DHT22;6804;48.774;9.174;2023-07-13T10:14:15;27.30;69.00
13464;DHT22;6804;48.774;9.174;2023-07-13T10:16:47;27.40;69.30
13464;DHT22;6804;48.774;9.174;2023-07-13T10:19:24;27.50;69.00
13464;DHT22;6804;48.774;9.174;2023-07-13T10:22:02;27.60;69.20
13464;DHT22;6804;48.774;9.174;2023-07-13T10:24:38;27.70;68.90
13464;DHT22;6804;48.774;9.174;2023-07-13T10:27:15;27.80;68.70
13464;DHT22;6804;48.774;9.174;2023-07-13T10:29:47;27.60;67.30
13464;DHT22;6804;48.774;9.174;2023-07-13T10:32:21;26.80;68.30
13464;DHT22;6804;48.774;9.174;2023-07-13T10:34:52;25.80;71.10
13464;DHT22;6804;48.774;9.174;2023-07-13T10:37:24;25.70;71.50
13464;DHT22;6804;48.774;9.174;2023-07-13T10:39:56;25.50;71.80
13464;DHT22;6804;48.774;9.174;2023-07-13T10:42:33;25.50;71.90
13464;DHT22;6804;48.774;9.174;2023-07-13T10:45:14;25.70;72.60
13464;DHT22;6804;48.774;9.174;2023-07-13T10:47:45;26.10;71.80
13464;DHT22;6804;48.774;9.174;2023-07-13T10:50:18;26.40;69.80
13464;DHT22;6804;48.774;9.174;2023-07-13T10:52:50;26.60;69.70
13464;DHT22;6804;48.774;9.174;2023-07-13T10:55:38;26.80;69.70
13464;DHT22;6804;48.774;9.174;2023-07-13T10:58:18;26.70;68.80
13464;DHT22;6804;48.774;9.174;2023-07-13T11:00:56;26.80;69.40
13464;DHT22;6804;48.774;9.174;2023-07-13T11:03:29;27.10;68.50
13464;DHT22;6804;48.774;9.174;2023-07-13T11:06:29;27.40;68.30
13464;DHT22;6804;48.774;9.174;2023-07-13T11:09:19;27.60;67.90
13464;DHT22;6804;48.774;9.174;2023-07-13T11:11:48;27.90;66.60
13464;DHT22;6804;48.774;9.174;2023-07-13T11:14:36;28.10;67.30
13464;DHT22;6804;48.774;9.174;2023-07-13T11:17:36;28.20;65.80
13464;DHT22;6804;48.774;9.174;2023-07-13T11:20:30;28.20;66.00
13464;DHT22;6804;48.774;9.174;2023-07-13T11:23:33;28.40;65.40
13464;DHT22;6804;48.774;9.174;2023-07-13T11:26:39;28.20;65.50
13464;DHT22;6804;48.774;9.174;2023-07-13T11:29:26;28.00;66.40
13464;DHT22;6804;48.774;9.174;2023-07-13T11:32:22;28.00;66.50
13464;DHT22;6804;48.774;9.174;2023-07-13T11:34:53;28.10;66.00
13464;DHT22;6804;48.774;9.174;2023-07-13T11:37:24;27.70;66.10
13464;DHT22;6804;48.774;9.174;2023-07-13T11:39:52;27.40;68.20
13464;DHT22;6804;48.774;9.174;2023-07-13T11:42:21;27.50;68.40
13464;DHT22;6804;48.774;9.174;2023-07-13T11:44:52;27.80;67.70
13464;DHT22;6804;48.774;9.174;2023-07-13T11:47:23;28.10;67.00
13464;DHT22;6804;48.774;9.174;2023-07-13T11:49:58;28.40;65.00
13464;DHT22;6804;48.774;9.174;2023-07-13T11:52:35;28.50;65.00
13464;DHT22;6804;48.774;9.174;2023-07-13T11:55:14;28.50;64.90
13464;DHT22;6804;48.774;9.174;2023-07-13T11:57:45;28.40;65.40
13464;DHT22;6804;48.774;9.174;2023-07-13T12:00:16;28.50;65.20
13464;DHT22;6804;48.774;9.174;2023-07-13T12:02:47;28.60;65.30
13464;DHT22;6804;48.774;9.174;2023-07-13T12:05:17;28.70;64.70
13464;DHT22;6804;48.774;9.174;2023-07-13T12:07:48;28.60;64.50
13464;DHT22;6804;48.774;9.174;2023-07-13T12:10:24;28.70;64.50
13464;DHT22;6804;48.774;9.174;2023-07-13T12:12:57;28.70;65.00
13464;DHT22;6804;48.774;9.174;2023-07-13T12:15:34;28.80;64.70
13464;DHT22;6804;48.774;9.174;2023-07-13T12:18:11;28.70;63.70
13464;DHT22;6804;48.774;9.174;2023-07-13T12:20:44;28.60;65.10
13464;DHT22;6804;48.774;9.174;2023-07-13T12:23:24;28.80;64.40
13464;DHT22;6804;48.774;9.174;2023-07-13T12:25:53;29.00;63.60
13464;DHT22;6804;48.774;9.174;2023-07-13T12:28:21;29.30;63.20
13464;DHT22;6804;48.774;9.174;2023-07-13T12:30:58;29.60;62.40
13464;DHT22;6804;48.774;9.174;2023-07-13T12:33:28;29.80;61.40
13464;DHT22;6804;48.774;9.174;2023-07-13T12:36:01;29.80;61.20
13464;DHT22;6804;48.774;9.174;2023-07-13T12:38:32;29.60;60.60
13464;DHT22;6804;48.774;9.174;2023-07-13T12:41:02;29.40;61.20
13464;DHT22;6804;48.774;9.174;2023-07-13T12:43:34;29.20;62.90
13464;DHT22;6804;48.774;9.174;2023-07-13T12:46:17;29.10;62.70
13464;DHT22;6804;48.774;9.174;2023-07-13T12:48:53;29.30;60.90
13464;DHT22;6804;48.774;9.174;2023-07-13T12:51:23;29.30;60.60
13464;DHT22;6804;48.774;9.174;2023-07-13T12:53:57;29.40;61.20
13464;DHT22;6804;48.774;9.174;2023-07-13T12:56:27;29.50;60.70
13464;DHT22;6804;48.774;9.174;2023-07-13T12:59:05;29.50;60.60
13464;DHT22;6804;48.774;9.174;2023-07-13T13:01:35;29.70;60.90
13464;DHT22;6804;48.774;9.174;2023-07-13T13:04:15;29.90;60.00
13464;DHT22;6804;48.774;9.174;2023-07-13T13:06:47;29.90;59.60
13464;DHT22;6804;48.774;9.174;2023-07-13T13:09:17;29.90;60.50
13464;DHT22;6804;48.774;9.174;2023-07-13T13:11:46;30.00;59.80
13464;DHT22;6804;48.774;9.174;2023-07-13T13:14:15;30.10;59.50
13464;DHT22;6804;48.774;9.174;2023-07-13T13:16:47;30.10;59.20
13464;DHT22;6804;48.774;9.174;2023-07-13T13:19:19;30.10;58.60
13464;DHT22;6804;48.774;9.174;2023-07-13T13:21:50;30.10;58.90
13464;DHT22;6804;48.774;9.174;2023-07-13T13:24:26;30.10;59.00
13464;DHT22;6804;48.774;9.174;2023-07-13T13:26:57;30.10;58.80
13464;DHT22;6804;48.774;9.174;2023-07-13T13:29:25;30.00;58.40
13464;DHT22;6804;48.774;9.174;2023-07-13T13:31:55;30.10;58.50
13464;DHT22;6804;48.774;9.174;2023-07-13T13:34:26;30.10;58.80
13464;DHT22;6804;48.774;9.174;2023-07-13T13:36:57;30.20;58.20
13464;DHT22;6804;48.774;9.174;2023-07-13T13:39:29;30.20;58.10
13464;DHT22;6804;48.774;9.174;2023-07-13T13:42:01;30.10;58.20
13464;DHT22;6804;48.774;9.174;2023-07-13T13:44:29;29.90;58.40
13464;DHT22;6804;48.774;9.174;2023-07-13T13:47:00;29.80;58.70
13464;DHT22;6804;48.774;9.174;2023-07-13T13:49:49;29.90;59.10
13464;DHT22;6804;48.774;9.174;2023-07-13T13:52:17;30.00;58.40
13464;DHT22;6804;48.774;9.174;2023-07-13T13:54:46;30.00;57.90
13464;DHT22;6804;48.774;9.174;2023-07-13T13:57:16;29.90;57.70
13464;DHT22;6804;48.774;9.174;2023-07-13T13:59:46;29.40;57.70
13464;DHT22;6804;48.774;9.174;2023-07-13T14:02:23;29.20;58.50
13464;DHT22;6804;48.774;9.174;2023-07-13T14:04:58;29.10;58.70
13464;DHT22;6804;48.774;9.174;2023-07-13T14:07:28;29.10;59.40
13464;DHT22;6804;48.774;9.174;2023-07-13T14:10:17;29.20;59.10
13464;DHT22;6804;48.774;9.174;2023-07-13T14:12:47;29.50;58.40
13464;DHT22;6804;48.774;9.174;2023-07-13T14:15:20;29.40;58.40
13464;DHT22;6804;48.774;9.174;2023-07-13T14:17:48;29.40;58.60
13464;DHT22;6804;48.774;9.174;2023-07-13T14:20:17;29.40;58.70
13464;DHT22;6804;48.774;9.174;2023-07-13T14:25:55;29.30;59.00
13464;DHT22;6804;48.774;9.174;2023-07-13T14:28:25;29.30;59.40
13464;DHT22;6804;48.774;9.174;2023-07-13T14:30:54;29.30;59.30
13464;DHT22;6804;48.774;9.174;2023-07-13T14:33:23;29.30;59.40
13464;DHT22;6804;48.774;9.174;2023-07-13T14:35:52;29.20;59.00
13464;DHT22;6804;48.774;9.174;2023-07-13T14:38:23;29.30;58.90
13464;DHT22;6804;48.774;9.174;2023-07-13T14:40:50;29.30;58.80
13464;DHT22;6804;48.774;9.174;2023-07-13T14:43:24;29.50;58.70
13464;DHT22;6804;48.774;9.174;2023-07-13T14:46:02;29.60;57.90
13464;DHT22;6804;48.774;9.174;2023-07-13T14:48:31;29.60;58.00
13464;DHT22;6804;48.774;9.174;2023-07-13T14:50:59;29.60;58.10
13464;DHT22;6804;48.774;9.174;2023-07-13T14:53:29;29.50;58.50
13464;DHT22;6804;48.774;9.174;2023-07-13T14:55:57;29.40;58.50
13464;DHT22;6804;48.774;9.174;2023-07-13T14:58:27;29.40;58.20
13464;DHT22;6804;48.774;9.174;2023-07-13T15:00:56;29.30;58.40
13464;DHT22;6804;48.774;9.174;2023-07-13T15:03:29;29.20;58.70
13464;DHT22;6804;48.774;9.174;2023-07-13T15:05:57;29.20;59.70
13464;DHT22;6804;48.774;9.174;2023-07-13T15:08:26;29.30;59.00
13464;DHT22;6804;48.774;9.174;2023-07-13T15:10:54;29.30;59.10
13464;DHT22;6804;48.774;9.174;2023-07-13T15:13:27;29.30;59.00
13464;DHT22;6804;48.774;9.174;2023-07-13T15:15:57;29.40;58.80
13464;DHT22;6804;48.774;9.174;2023-07-13T15:18:28;29.30;59.20
13464;DHT22;6804;48.774;9.174;2023-07-13T15:20:58;29.30;58.80
13464;DHT22;6804;48.774;9.174;2023-07-13T15:23:29;29.20;58.60
13464;DHT22;6804;48.774;9.174;2023-07-13T15:25:59;29.20;58.90
13464;DHT22;6804;48.774;9.174;2023-07-13T15:28:29;29.10;58.90
13464;DHT22;6804;48.774;9.174;2023-07-13T15:31:00;29.10;58.80
13464;DHT22;6804;48.774;9.174;2023-07-13T15:33:30;29.00;59.20
13464;DHT22;6804;48.774;9.174;2023-07-13T15:36:01;28.90;59.30
13464;DHT22;6804;48.774;9.174;2023-07-13T15:38:36;28.90;59.60
13464;DHT22;6804;48.774;9.174;2023-07-13T15:41:17;28.80;60.00
13464;DHT22;6804;48.774;9.174;2023-07-13T15:43:53;28.70;59.70
13464;DHT22;6804;48.774;9.174;2023-07-13T15:46:33;28.60;59.80
13464;DHT22;6804;48.774;9.174;2023-07-13T15:49:01;28.60;59.40
13464;DHT22;6804;48.774;9.174;2023-07-13T15:51:31;28.50;59.50
13464;DHT22;6804;48.774;9.174;2023-07-13T15:54:03;28.50;60.00
13464;DHT22;6804;48.774;9.174;2023-07-13T15:56:35;28.40;59.70
13464;DHT22;6804;48.774;9.174;2023-07-13T15:59:10;28.40;59.70
13464;DHT22;6804;48.774;9.174;2023-07-13T16:01:39;28.40;59.90
13464;DHT22;6804;48.774;9.174;2023-07-13T16:04:11;28.40;59.70
13464;DHT22;6804;48.774;9.174;2023-07-13T16:06:40;28.40;60.00
13464;DHT22;6804;48.774;9.174;2023-07-13T16:09:18;28.40;60.30
13464;DHT22;6804;48.774;9.174;2023-07-13T16:11:52;28.40;60.30
13464;DHT22;6804;48.774;9.174;2023-07-13T16:14:23;28.50;60.60
13464;DHT22;6804;48.774;9.174;2023-07-13T16:16:53;28.50;60.40
13464;DHT22;6804;48.774;9.174;2023-07-13T16:19:24;28.60;59.90